Time;durP1;ratioP1;P1;durP2;ratioP2;P2;SDS_P1;SDS_P2;PMS_P1;PMS_P2;Temp;Humidity;BMP_temperature;BMP_pressure;BME280_temperature;BME280_humidity;BME280_pressure;Samples;Min_cycle;Max_cycle;Signal;HPM_P1;HPM_P2
2022/06/25 00:01:09;;;;;;;;;;;;;;;;;;5025111;28;46787;-82
2022/06/25 00:03:36;;;;;;;;;;;;;;;;;;5024396;28;46070;-82
2022/06/25 00:06:02;;;;;;;;;;;;;;;;;;5030515;28;47607;-82
2022/06/25 00:08:28;;;;;;;;;;;;;;;;;;5028463;28;46297;-82
2022/06/25 00:10:55;;;;;;;;;;;;;;;;;;5023424;28;45988;-82
2022/06/25 00:13:21;;;;;;;;;;;;;;;;;;5032311;28;48005;-82
2022/06/25 00:15:47;;;;;;;;;;;;;;;;;;5025554;28;42432;-82
2022/06/25 00:18:14;;;;;;;;;;;;;;;;;;5046186;28;46573;-82
2022/06/25 00:20:40;;;;;;;;;;;;;;;;;;5012375;28;45674;-82
2022/06/25 00:23:11;;;;;;;;;;;;;;;;;;5013913;28;43849;-82
2022/06/25 00:25:38;;;;;;;;;;;;;;;;;;5045244;28;45326;-82
2022/06/25 00:28:04;;;;;;;;;;;;;;;;;;5045439;28;46293;-82
2022/06/25 00:30:30;;;;;;;;;;;;;;;;;;5031497;28;43405;-82
2022/06/25 00:32:56;;;;;;;;;;;;;;;;;;5026935;28;45841;-82
2022/06/25 00:35:23;;;;;;;;;;;;;;;;;;5028178;28;44206;-82
2022/06/25 00:37:49;;;;;;;;;;;;;;;;;;5028375;28;44569;-82
2022/06/25 00:40:15;;;;;;;;;;;;;;;;;;5036180;28;43266;-82
2022/06/25 00:42:44;;;;;;;;;;;;;;;;;;5025863;28;41930;-82
2022/06/25 00:45:11;;;;;;;;;;;;;;;;;;5034467;28;43245;-82
2022/06/25 00:47:39;;;;;;;;;;;;;;;;;;5044743;28;47316;-82
2022/06/25 00:50:08;;;;;;;;;;;;;;;;;;5034164;28;44730;-82
2022/06/25 00:52:36;;;;;;;;;;;;;;;;;;5042651;28;43943;-82
2022/06/25 00:55:03;;;;;;;;;;;;;;;;;;5027413;28;48428;-82
2022/06/25 00:57:29;;;;;;;;;;;;;;;;;;5084803;22;46624;-82
2022/06/25 00:59:56;;;;;;;;;;;;;;;;;;5044011;28;48210;-82
2022/06/25 01:02:22;;;;;;;;;;;;;;;;;;5044289;28;43205;-83
2022/06/25 01:04:49;;;;;;;;;;;;;;;;;;5024286;28;45562;-82
2022/06/25 01:07:15;;;;;;;;;;;;;;;;;;5056518;28;48181;-82
2022/06/25 01:09:41;;;;;;;;;;;;;;;;;;5044629;28;44334;-83
2022/06/25 01:12:08;;;;;;;;;;;;;;;;;;5037909;28;47474;-82
2022/06/25 01:14:34;;;;;;;;;;;;;;;;;;5041822;28;48326;-82
2022/06/25 01:17:00;;;;;;;;;;;;;;;;;;5052299;28;43338;-83
2022/06/25 01:19:29;;;;;;;;;;;;;;;;;;5050604;28;47010;-82
2022/06/25 01:21:55;;;;;;;;;;;;;;;;;;5045971;28;43053;-82
2022/06/25 01:24:21;;;;;;;;;;;;;;;;;;5060199;28;47800;-83
2022/06/25 01:26:47;;;;;;;;;;;;;;;;;;5064107;28;48103;-82
2022/06/25 01:29:14;;;;;;;;;;;;;;;;;;5043948;28;46177;-82
2022/06/25 01:31:40;;;;;;;;;;;;;;;;;;5064019;28;47577;-82
2022/06/25 01:34:06;;;;;;;;;;;;;;;;;;5059728;28;49268;-82
2022/06/25 01:36:32;;;;;;;;;;;;;;;;;;5060003;28;45516;-82
2022/06/25 01:38:59;;;;;;;;;;;;;;;;;;5045114;28;46527;-82
2022/06/25 01:41:25;;;;;;;;;;;;;;;;;;5046529;28;44564;-82
2022/06/25 01:43:51;;;;;;;;;;;;;;;;;;5046958;28;46592;-82
2022/06/25 01:46:18;;;;;;;;;;;;;;;;;;5061732;28;45418;-82
2022/06/25 01:48:44;;;;;;;;;;;;;;;;;;5048390;28;47201;-82
2022/06/25 01:51:10;;;;;;;;;;;;;;;;;;5050467;28;46097;-82
2022/06/25 01:53:36;;;;;;;;;;;;;;;;;;5042410;28;48611;-82
2022/06/25 01:56:03;;;;;;;;;;;;;;;;;;5045928;28;44179;-82
2022/06/25 01:58:29;;;;;;;;;;;;;;;;;;5046034;28;46344;-82
2022/06/25 02:00:55;;;;;;;;;;;;;;;;;;5045717;28;44105;-82
2022/06/25 02:03:22;;;;;;;;;;;;;;;;;;5046254;28;45586;-83
2022/06/25 02:05:57;;;;;;;;;;;;;;;;;;5029097;28;49099;-82
2022/06/25 02:08:23;;;;;;;;;;;;;;;;;;5032518;28;45070;-82
2022/06/25 02:10:50;;;;;;;;;;;;;;;;;;5045739;28;46529;-82
2022/06/25 02:13:16;;;;;;;;;;;;;;;;;;5064997;28;46985;-82
2022/06/25 02:15:42;;;;;;;;;;;;;;;;;;5066677;28;44609;-82
2022/06/25 02:18:10;;;;;;;;;;;;;;;;;;5045792;28;47555;-82
2022/06/25 02:20:36;;;;;;;;;;;;;;;;;;5061592;28;47050;-82
2022/06/25 02:23:03;;;;;;;;;;;;;;;;;;5049895;28;45334;-82
2022/06/25 02:25:29;;;;;;;;;;;;;;;;;;5068678;28;46665;-82
2022/06/25 02:27:55;;;;;;;;;;;;;;;;;;5062764;28;44286;-82
2022/06/25 02:30:21;;;;;;;;;;;;;;;;;;5047700;28;45187;-82
2022/06/25 02:32:48;;;;;;;;;;;;;;;;;;5042291;28;46890;-82
2022/06/25 02:35:14;;;;;;;;;;;;;;;;;;5046641;28;44707;-82
2022/06/25 02:37:40;;;;;;;;;;;;;;;;;;5029273;28;44302;-82
2022/06/25 02:40:06;;;;;;;;;;;;;;;;;;5046553;28;48353;-83
2022/06/25 02:42:33;;;;;;;;;;;;;;;;;;5048333;28;43115;-82
2022/06/25 02:44:59;;;;;;;;;;;;;;;;;;5061478;28;48089;-82
2022/06/25 02:47:25;;;;;;;;;;;;;;;;;;5043793;28;47018;-82
2022/06/25 02:49:52;;;;;;;;;;;;;;;;;;5049504;28;46289;-82
2022/06/25 02:52:18;;;;;;;;;;;;;;;;;;5045451;28;46848;-82
2022/06/25 02:54:44;;;;;;;;;;;;;;;;;;5028773;28;45742;-82
2022/06/25 02:59:56;;;;;;;;;;;;;;;;;;5061158;28;46851;-82
2022/06/25 03:02:22;;;;;;;;;;;;;;;;;;5048962;28;45825;-82
2022/06/25 03:04:48;;;;;;;;;;;;;;;;;;5067677;28;46730;-82
2022/06/25 03:07:15;;;;;;;;;;;;;;;;;;5064368;28;46215;-82
2022/06/25 03:09:41;;;;;;;;;;;;;;;;;;5039475;28;44692;-82
2022/06/25 03:12:07;;;;;;;;;;;;;;;;;;5042819;28;47308;-83
2022/06/25 03:14:33;;;;;;;;;;;;;;;;;;5049262;28;46436;-83
2022/06/25 03:17:00;;;;;;;;;;;;;;;;;;5045716;28;46151;-82
2022/06/25 03:19:26;;;;;;;;;;;;;;;;;;5049129;28;45773;-82
2022/06/25 03:21:52;;;;;;;;;;;;;;;;;;5046402;28;43626;-80
2022/06/25 03:24:19;;;;;;;;;;;;;;;;;;5047673;28;46163;-81
2022/06/25 03:26:45;;;;;;;;;;;;;;;;;;5041019;28;48076;-80
2022/06/25 03:29:11;;;;;;;;;;;;;;;;;;5047260;28;45785;-82
2022/06/25 03:31:37;;;;;;;;;;;;;;;;;;5032394;28;45723;-82
2022/06/25 03:34:04;;;;;;;;;;;;;;;;;;5061894;28;43047;-82
2022/06/25 03:36:30;;;;;;;;;;;;;;;;;;5046748;28;45139;-83
2022/06/25 03:38:56;;;;;;;;;;;;;;;;;;5048209;28;47990;-82
2022/06/25 03:41:32;;;;;;;;;;;;;;;;;;5048254;28;45632;-83
2022/06/25 03:43:58;;;;;;;;;;;;;;;;;;5044252;28;47515;-82
2022/06/25 03:46:24;;;;;;;;;;;;;;;;;;5065414;28;49626;-82
2022/06/25 03:48:51;;;;;;;;;;;;;;;;;;5047076;28;46840;-82
2022/06/25 03:51:17;;;;;;;;;;;;;;;;;;5063889;28;48113;-82
2022/06/25 03:53:43;;;;;;;;;;;;;;;;;;5062875;28;44587;-82
2022/06/25 03:56:09;;;;;;;;;;;;;;;;;;5045488;28;47169;-83
2022/06/25 03:58:36;;;;;;;;;;;;;;;;;;5047521;28;47199;-83
2022/06/25 04:01:02;;;;;;;;;;;;;;;;;;5046596;28;44682;-82
2022/06/25 04:03:28;;;;;;;;;;;;;;;;;;5043435;28;46358;-82
2022/06/25 04:05:55;;;;;;;;;;;;;;;;;;5062391;28;46635;-82
2022/06/25 04:08:21;;;;;;;;;;;;;;;;;;5047912;28;43983;-82
2022/06/25 04:10:47;;;;;;;;;;;;;;;;;;5047093;28;46973;-82
2022/06/25 04:13:13;;;;;;;;;;;;;;;;;;5045196;28;45699;-83
2022/06/25 04:15:40;;;;;;;;;;;;;;;;;;5061762;28;45282;-82
2022/06/25 04:18:06;;;;;;;;;;;;;;;;;;5060448;28;47041;-83
2022/06/25 04:20:32;;;;;;;;;;;;;;;;;;5046344;28;42575;-82
2022/06/25 04:22:59;;;;;;;;;;;;;;;;;;5043160;28;46321;-83
2022/06/25 04:25:26;;;;;;;;;;;;;;;;;;5047472;28;46855;-82
2022/06/25 04:30:37;;;;;;;;;;;;;;;;;;5065861;28;45334;-82
2022/06/25 04:33:03;;;;;;;;;;;;;;;;;;5034775;28;45100;-82
2022/06/25 04:35:30;;;;;;;;;;;;;;;;;;5044698;28;46256;-83
2022/06/25 04:37:56;;;;;;;;;;;;;;;;;;5042914;28;48017;-83
2022/06/25 04:40:22;;;;;;;;;;;;;;;;;;5066196;28;42699;-82
2022/06/25 04:42:48;;;;;;;;;;;;;;;;;;5047143;28;46199;-82
2022/06/25 04:45:15;;;;;;;;;;;;;;;;;;5039076;28;45216;-81
2022/06/25 04:47:41;;;;;;;;;;;;;;;;;;5045099;28;44782;-81
2022/06/25 04:50:07;;;;;;;;;;;;;;;;;;5065288;28;46702;-81
2022/06/25 04:52:34;;;;;;;;;;;;;;;;;;5045662;28;44588;-82
2022/06/25 04:55:00;;;;;;;;;;;;;;;;;;5046008;28;46320;-82
2022/06/25 04:57:27;;;;;;;;;;;;;;;;;;5062123;28;19987;-82
2022/06/25 04:59:53;;;;;;;;;;;;;;;;;;5045637;28;44697;-81
2022/06/25 05:02:20;;;;;;;;;;;;;;;;;;5046378;28;47364;-82
2022/06/25 05:04:46;;;;;;;;;;;;;;;;;;5043498;28;44974;-82
2022/06/25 05:07:12;;;;;;;;;;;;;;;;;;5040903;28;41461;-82
2022/06/25 05:09:39;;;;;;;;;;;;;;;;;;5045997;28;46397;-82
2022/06/25 05:12:05;;;;;;;;;;;;;;;;;;5045597;28;49089;-82
2022/06/25 05:14:31;;;;;;;;;;;;;;;;;;5042668;28;46585;-82
2022/06/25 05:17:01;;;;;;;;;;;;;;;;;;5040995;28;49041;-83
2022/06/25 05:19:27;;;;;;;;;;;;;;;;;;5065996;28;44865;-83
2022/06/25 05:21:57;;;;;;;;;;;;;;;;;;5049284;28;47840;-82
2022/06/25 05:24:26;;;;;;;;;;;;;;;;;;5065673;28;47029;-83
2022/06/25 05:26:55;;;;;;;;;;;;;;;;;;5042968;28;44423;-82
2022/06/25 05:29:21;;;;;;;;;;;;;;;;;;5068173;28;44725;-83
2022/06/25 05:31:47;;;;;;;;;;;;;;;;;;5048620;28;48974;-83
2022/06/25 05:34:14;;;;;;;;;;;;;;;;;;5047369;28;45745;-83
2022/06/25 05:36:40;;;;;;;;;;;;;;;;;;5048488;28;49343;-83
2022/06/25 05:39:06;;;;;;;;;;;;;;;;;;5047658;28;44368;-83
2022/06/25 05:41:32;;;;;;;;;;;;;;;;;;5064934;28;46920;-83
2022/06/25 05:44:04;;;;;;;;;;;;;;;;;;5033146;28;47335;-83
2022/06/25 05:46:31;;;;;;;;;;;;;;;;;;5046890;28;43378;-83
2022/06/25 05:48:57;;;;;;;;;;;;;;;;;;5066908;28;45119;-83
2022/06/25 05:51:23;;;;;;;;;;;;;;;;;;5067718;28;45196;-83
2022/06/25 05:53:50;;;;;;;;;;;;;;;;;;5048454;28;44702;-83
2022/06/25 05:56:16;;;;;;;;;;;;;;;;;;5049176;28;43561;-83
2022/06/25 05:58:42;;;;;;;;;;;;;;;;;;5047689;28;43680;-84
2022/06/25 06:01:08;;;;;;;;;;;;;;;;;;5047025;28;47600;-83
2022/06/25 06:03:35;;;;;;;;;;;;;;;;;;5050892;28;45444;-82
2022/06/25 06:06:01;;;;;;;;;;;;;;;;;;5048759;28;43845;-83
2022/06/25 06:08:27;;;;;;;;;;;;;;;;;;5068586;28;44689;-83
2022/06/25 06:10:54;;;;;;;;;;;;;;;;;;5048128;28;46690;-84
2022/06/25 06:13:20;;;;;;;;;;;;;;;;;;5048018;28;45273;-83
2022/06/25 06:15:46;;;;;;;;;;;;;;;;;;5059450;28;46407;-83
2022/06/25 06:18:12;;;;;;;;;;;;;;;;;;5051675;28;50013;-83
2022/06/25 06:20:39;;;;;;;;;;;;;;;;;;5046482;28;47658;-83
2022/06/25 06:23:05;;;;;;;;;;;;;;;;;;5031154;28;46954;-83
2022/06/25 06:25:31;;;;;;;;;;;;;;;;;;5052284;28;44922;-84
2022/06/25 06:27:57;;;;;;;;;;;;;;;;;;5049455;28;44584;-84
2022/06/25 06:30:26;;;;;;;;;;;;;;;;;;5048247;28;48111;-81
2022/06/25 06:32:56;;;;;;;;;;;;;;;;;;5061886;28;44739;-79
2022/06/25 06:35:23;;;;;;;;;;;;;;;;;;5037469;28;46785;-79
2022/06/25 06:37:49;;;;;;;;;;;;;;;;;;5032437;28;45157;-79
2022/06/25 06:40:15;;;;;;;;;;;;;;;;;;5060182;28;44338;-80
2022/06/25 06:42:43;;;;;;;;;;;;;;;;;;5043928;28;46184;-80
2022/06/25 06:45:10;;;;;;;;;;;;;;;;;;5033145;28;44695;-79
2022/06/25 06:47:36;;;;;;;;;;;;;;;;;;5040950;28;46033;-80
2022/06/25 06:50:03;;;;;;;;;;;;;;;;;;5044397;28;49250;-79
2022/06/25 06:52:32;;;;;;;;;;;;;;;;;;5028760;28;40802;-79
2022/06/25 06:54:59;;;;;;;;;;;;;;;;;;5046976;28;46462;-80
2022/06/25 06:57:25;;;;;;;;;;;;;;;;;;5046018;28;45433;-80
2022/06/25 06:59:52;;;;;;;;;;;;;;;;;;5045787;28;46592;-80
2022/06/25 07:02:18;;;;;;;;;;;;;;;;;;5048809;28;46399;-80
2022/06/25 07:04:44;;;;;;;;;;;;;;;;;;5040628;28;44980;-79
2022/06/25 07:07:11;;;;;;;;;;;;;;;;;;5044716;28;43792;-80
2022/06/25 07:09:39;;;;;;;;;;;;;;;;;;5044994;28;47279;-79
2022/06/25 07:12:05;;;;;;;;;;;;;;;;;;5036918;28;44533;-80
2022/06/25 07:14:31;;;;;;;;;;;;;;;;;;5045978;28;44321;-78
2022/06/25 07:16:57;;;;;;;;;;;;;;;;;;5050133;28;48084;-80
2022/06/25 07:19:24;;;;;;;;;;;;;;;;;;5046557;28;44398;-80
2022/06/25 07:21:50;;;;;;;;;;;;;;;;;;5043488;28;45484;-80
2022/06/25 07:24:16;;;;;;;;;;;;;;;;;;5046799;28;45576;-78
2022/06/25 07:26:42;;;;;;;;;;;;;;;;;;5061647;28;47742;-78
2022/06/25 07:29:09;;;;;;;;;;;;;;;;;;5067503;28;45483;-79
2022/06/25 07:31:35;;;;;;;;;;;;;;;;;;5047005;28;43135;-78
2022/06/25 07:34:02;;;;;;;;;;;;;;;;;;5035608;28;44474;-80
2022/06/25 07:36:28;;;;;;;;;;;;;;;;;;5037649;28;47118;-78
2022/06/25 07:38:57;;;;;;;;;;;;;;;;;;5037702;28;42990;-79
2022/06/25 07:41:23;;;;;;;;;;;;;;;;;;5043195;28;45939;-79
2022/06/25 07:43:50;;;;;;;;;;;;;;;;;;5028477;28;47528;-79
2022/06/25 07:46:17;;;;;;;;;;;;;;;;;;5039113;28;45375;-78
2022/06/25 07:48:43;;;;;;;;;;;;;;;;;;5034979;28;47002;-78
2022/06/25 07:53:54;;;;;;;;;;;;;;;;;;5067404;28;46248;-79
2022/06/25 07:56:20;;;;;;;;;;;;;;;;;;5027587;28;49618;-79
2022/06/25 07:58:47;;;;;;;;;;;;;;;;;;5042607;28;46055;-79
2022/06/25 08:01:13;;;;;;;;;;;;;;;;;;5065019;28;44967;-78
2022/06/25 08:03:39;;;;;;;;;;;;;;;;;;5063979;28;48075;-79
2022/06/25 08:06:06;;;;;;;;;;;;;;;;;;5053285;28;43316;-80
2022/06/25 08:08:32;;;;;;;;;;;;;;;;;;5059414;28;46206;-80
2022/06/25 08:10:58;;;;;;;;;;;;;;;;;;5062170;28;44295;-80
2022/06/25 08:13:26;;;;;;;;;;;;;;;;;;5036083;28;46637;-80
2022/06/25 08:15:52;;;;;;;;;;;;;;;;;;5054905;28;45932;-79
2022/06/25 08:18:18;;;;;;;;;;;;;;;;;;5059257;28;46502;-80
2022/06/25 08:20:45;;;;;;;;;;;;;;;;;;5063819;28;50293;-79
2022/06/25 08:23:11;;;;;;;;;;;;;;;;;;5056930;28;47125;-79
2022/06/25 08:25:37;;;;;;;;;;;;;;;;;;5042804;28;48581;-78
2022/06/25 08:28:04;;;;;;;;;;;;;;;;;;5045681;28;46409;-77
2022/06/25 08:30:30;;;;;;;;;;;;;;;;;;5038586;28;44540;-78
2022/06/25 08:32:57;;;;;;;;;;;;;;;;;;5052712;28;47330;-79
2022/06/25 08:35:23;;;;;;;;;;;;;;;;;;5046390;28;47412;-79
2022/06/25 08:37:51;;;;;;;;;;;;;;;;;;5058597;28;42923;-77
2022/06/25 08:40:18;;;;;;;;;;;;;;;;;;5043152;28;44975;-76
2022/06/25 08:42:44;;;;;;;;;;;;;;;;;;5040546;28;45716;-79
2022/06/25 08:45:10;;;;;;;;;;;;;;;;;;5046111;28;46269;-77
2022/06/25 08:47:37;;;;;;;;;;;;;;;;;;5036715;28;48004;-79
2022/06/25 08:50:03;;;;;;;;;;;;;;;;;;5061561;28;45689;-79
2022/06/25 08:52:30;;;;;;;;;;;;;;;;;;5037760;28;47901;-79
2022/06/25 08:54:56;;;;;;;;;;;;;;;;;;5035722;28;48927;-76
2022/06/25 08:57:22;;;;;;;;;;;;;;;;;;5049258;28;44806;-79
2022/06/25 08:59:49;;;;;;;;;;;;;;;;;;5053884;28;46440;-78
2022/06/25 09:02:15;;;;;;;;;;;;;;;;;;5051449;28;49030;-78
2022/06/25 09:04:42;;;;;;;;;;;;;;;;;;5052476;28;42564;-79
2022/06/25 09:07:08;;;;;;;;;;;;;;;;;;5036823;28;44837;-78
2022/06/25 09:09:34;;;;;;;;;;;;;;;;;;5064351;28;44054;-78
2022/06/25 09:12:08;;;;;;;;;;;;;;;;;;5042795;28;45871;-78
2022/06/25 09:14:35;;;;;;;;;;;;;;;;;;5047562;28;45510;-80
2022/06/25 09:17:04;;;;;;;;;;;;;;;;;;5054004;28;44906;-79
2022/06/25 09:19:30;;;;;;;;;;;;;;;;;;5049265;28;45565;-78
2022/06/25 09:21:58;;;;;;;;;;;;;;;;;;5056418;28;45362;-79
2022/06/25 09:24:24;;;;;;;;;;;;;;;;;;5050413;28;47121;-78
2022/06/25 09:26:50;;;;;;;;;;;;;;;;;;5052313;28;44539;-78
2022/06/25 09:29:16;;;;;;;;;;;;;;;;;;5067107;28;48594;-78
2022/06/25 09:31:43;;;;;;;;;;;;;;;;;;5066264;28;43632;-78
2022/06/25 09:34:09;;;;;;;;;;;;;;;;;;5054914;28;46488;-78
2022/06/25 09:36:36;;;;;;;;;;;;;;;;;;5050615;28;45781;-78
2022/06/25 09:39:02;;;;;;;;;;;;;;;;;;5071880;28;43721;-79
2022/06/25 09:41:28;;;;;;;;;;;;;;;;;;5065196;28;49492;-78
2022/06/25 09:43:55;;;;;;;;;;;;;;;;;;5069788;28;46111;-79
2022/06/25 09:46:21;;;;;;;;;;;;;;;;;;5048668;28;48260;-79
2022/06/25 09:48:47;;;;;;;;;;;;;;;;;;5039499;28;45583;-79
2022/06/25 09:51:14;;;;;;;;;;;;;;;;;;5050401;28;46124;-79
2022/06/25 09:53:40;;;;;;;;;;;;;;;;;;5049264;28;47124;-79
2022/06/25 09:56:06;;;;;;;;;;;;;;;;;;5045749;28;33527;-79
2022/06/25 09:58:34;;;;;;;;;;;;;;;;;;5041971;28;48359;-79
2022/06/25 10:01:02;;;;;;;;;;;;;;;;;;5040884;28;47080;-79
2022/06/25 10:03:28;;;;;;;;;;;;;;;;;;5040598;28;46066;-79
2022/06/25 10:05:55;;;;;;;;;;;;;;;;;;5062850;28;46431;-79
2022/06/25 10:08:21;;;;;;;;;;;;;;;;;;5042330;28;46921;-77
2022/06/25 10:10:50;;;;;;;;;;;;;;;;;;5044809;28;44467;-78
2022/06/25 10:13:16;;;;;;;;;;;;;;;;;;5049479;28;45232;-79
2022/06/25 10:15:43;;;;;;;;;;;;;;;;;;5068373;28;46189;-77
2022/06/25 10:18:10;;;;;;;;;;;;;;;;;;5061704;28;46618;-79
2022/06/25 10:20:36;;;;;;;;;;;;;;;;;;5046175;28;48091;-78
2022/06/25 10:23:02;;;;;;;;;;;;;;;;;;5042532;28;46529;-78
2022/06/25 10:25:28;;;;;;;;;;;;;;;;;;5034277;28;46272;-78
2022/06/25 10:27:55;;;;;;;;;;;;;;;;;;5058398;28;47455;-78
2022/06/25 10:30:21;;;;;;;;;;;;;;;;;;5048451;28;44639;-79
2022/06/25 10:32:47;;;;;;;;;;;;;;;;;;5049145;28;44859;-79
2022/06/25 10:35:13;;;;;;;;;;;;;;;;;;5045812;28;49895;-78
2022/06/25 10:37:40;;;;;;;;;;;;;;;;;;5062742;28;46121;-78
2022/06/25 10:40:06;;;;;;;;;;;;;;;;;;5039819;28;48761;-79
2022/06/25 10:45:17;;;;;;;;;;;;;;;;;;5069745;28;44138;-79
2022/06/25 10:47:44;;;;;;;;;;;;;;;;;;5048317;28;47208;-78
2022/06/25 10:50:10;;;;;;;;;;;;;;;;;;5042205;28;42908;-79
2022/06/25 10:52:36;;;;;;;;;;;;;;;;;;5047647;28;49144;-80
2022/06/25 10:55:03;;;;;;;;;;;;;;;;;;5044125;28;48743;-79
2022/06/25 10:57:29;;;;;;;;;;;;;;;;;;5048109;28;44726;-78
2022/06/25 10:59:55;;;;;;;;;;;;;;;;;;5051773;28;43392;-78
2022/06/25 11:02:23;;;;;;;;;;;;;;;;;;5041752;28;45786;-79
2022/06/25 11:04:50;;;;;;;;;;;;;;;;;;5052722;28;46975;-78
2022/06/25 11:07:19;;;;;;;;;;;;;;;;;;5035684;28;47025;-79
2022/06/25 11:09:45;;;;;;;;;;;;;;;;;;5053412;28;43315;-80
2022/06/25 11:12:12;;;;;;;;;;;;;;;;;;5037054;28;46734;-80
2022/06/25 11:14:38;;;;;;;;;;;;;;;;;;5039612;28;45728;-79
2022/06/25 11:17:05;;;;;;;;;;;;;;;;;;5054612;28;47545;-79
2022/06/25 11:19:35;;;;;;;;;;;;;;;;;;5062136;28;46147;-81
2022/06/25 11:22:02;;;;;;;;;;;;;;;;;;5063656;28;45615;-79
2022/06/25 11:24:28;;;;;;;;;;;;;;;;;;5051168;28;47573;-79
2022/06/25 11:29:39;;;;;;;;;;;;;;;;;;5058703;28;46333;-80
2022/06/25 11:32:06;;;;;;;;;;;;;;;;;;5049874;28;47566;-80
2022/06/25 11:34:33;;;;;;;;;;;;;;;;;;5049313;28;48014;-78
2022/06/25 11:37:00;;;;;;;;;;;;;;;;;;5048939;28;43270;-80
2022/06/25 11:39:26;;;;;;;;;;;;;;;;;;5049382;28;46702;-79
2022/06/25 11:41:53;;;;;;;;;;;;;;;;;;5050570;28;48417;-79
2022/06/25 11:44:19;;;;;;;;;;;;;;;;;;5045186;28;42801;-81
2022/06/25 11:46:45;;;;;;;;;;;;;;;;;;5047937;28;47190;-80
2022/06/25 11:49:12;;;;;;;;;;;;;;;;;;5054317;28;46005;-79
2022/06/25 11:51:38;;;;;;;;;;;;;;;;;;5060252;28;46639;-79
2022/06/25 11:54:04;;;;;;;;;;;;;;;;;;5049407;28;45602;-79
2022/06/25 11:56:31;;;;;;;;;;;;;;;;;;5040737;28;47295;-80
2022/06/25 11:58:57;;;;;;;;;;;;;;;;;;5043343;28;46215;-81
2022/06/25 12:01:23;;;;;;;;;;;;;;;;;;5068405;28;45088;-79
2022/06/25 12:03:49;;;;;;;;;;;;;;;;;;5045038;28;43902;-81
2022/06/25 12:06:16;;;;;;;;;;;;;;;;;;5068405;28;46740;-81
2022/06/25 12:08:44;;;;;;;;;;;;;;;;;;5050442;28;44574;-80
2022/06/25 12:11:10;;;;;;;;;;;;;;;;;;5062651;28;46386;-81
2022/06/25 12:13:37;;;;;;;;;;;;;;;;;;5043767;28;46325;-79
2022/06/25 12:16:03;;;;;;;;;;;;;;;;;;5051183;28;47280;-80
2022/06/25 12:18:29;;;;;;;;;;;;;;;;;;5048961;28;48234;-78
2022/06/25 12:20:56;;;;;;;;;;;;;;;;;;5041767;28;47504;-78
2022/06/25 12:23:22;;;;;;;;;;;;;;;;;;5067822;28;43021;-78
2022/06/25 12:25:48;;;;;;;;;;;;;;;;;;5049994;28;47583;-79
2022/06/25 12:28:15;;;;;;;;;;;;;;;;;;5057025;28;44346;-80
2022/06/25 12:30:41;;;;;;;;;;;;;;;;;;5067061;28;49652;-81
2022/06/25 12:33:13;;;;;;;;;;;;;;;;;;5067383;28;48140;-81
2022/06/25 12:35:39;;;;;;;;;;;;;;;;;;5041735;28;44427;-79
2022/06/25 12:38:05;;;;;;;;;;;;;;;;;;5032283;28;44320;-81
2022/06/25 12:40:31;;;;;;;;;;;;;;;;;;5041884;28;48949;-80
2022/06/25 12:42:58;;;;;;;;;;;;;;;;;;5059596;28;42985;-78
2022/06/25 12:45:24;;;;;;;;;;;;;;;;;;5042080;28;48633;-79
2022/06/25 12:47:50;;;;;;;;;;;;;;;;;;5043290;28;47026;-79
2022/06/25 12:50:17;;;;;;;;;;;;;;;;;;5060567;28;46062;-80
2022/06/25 12:52:43;;;;;;;;;;;;;;;;;;5048211;28;46060;-78
2022/06/25 12:55:09;;;;;;;;;;;;;;;;;;5044178;28;46202;-80
2022/06/25 12:57:35;;;;;;;;;;;;;;;;;;5038604;28;44942;-80
2022/06/25 13:00:02;;;;;;;;;;;;;;;;;;5044607;28;47544;-78
2022/06/25 13:02:32;;;;;;;;;;;;;;;;;;5044460;28;44826;-79
2022/06/25 13:04:59;;;;;;;;;;;;;;;;;;5038282;28;45649;-80
2022/06/25 13:07:26;;;;;;;;;;;;;;;;;;5043350;28;48187;-80
2022/06/25 13:09:52;;;;;;;;;;;;;;;;;;5027845;28;42331;-78
2022/06/25 13:12:23;;;;;;;;;;;;;;;;;;5041095;28;49281;-77
2022/06/25 13:14:50;;;;;;;;;;;;;;;;;;5043618;28;45966;-77
2022/06/25 13:17:16;;;;;;;;;;;;;;;;;;5057962;28;46097;-76
2022/06/25 13:19:43;;;;;;;;;;;;;;;;;;5059750;28;49867;-76
2022/06/25 13:22:09;;;;;;;;;;;;;;;;;;5035516;28;45878;-76
2022/06/25 13:24:36;;;;;;;;;;;;;;;;;;5053497;28;47532;-78
2022/06/25 13:27:02;;;;;;;;;;;;;;;;;;5042651;28;46757;-77
2022/06/25 13:29:29;;;;;;;;;;;;;;;;;;5039887;28;46070;-76
2022/06/25 13:31:57;;;;;;;;;;;;;;;;;;5041246;28;47857;-78
2022/06/25 13:34:23;;;;;;;;;;;;;;;;;;5059130;28;44570;-74
2022/06/25 13:36:49;;;;;;;;;;;;;;;;;;5061416;28;48158;-76
2022/06/25 13:39:16;;;;;;;;;;;;;;;;;;5045574;28;46665;-75
2022/06/25 13:41:45;;;;;;;;;;;;;;;;;;5041092;28;45818;-76
2022/06/25 13:44:11;;;;;;;;;;;;;;;;;;5048240;28;45030;-77
2022/06/25 13:46:37;;;;;;;;;;;;;;;;;;5038716;28;45364;-78
2022/06/25 13:49:04;;;;;;;;;;;;;;;;;;5067075;28;46637;-77
2022/06/25 13:51:30;;;;;;;;;;;;;;;;;;5063059;28;46825;-77
2022/06/25 13:53:56;;;;;;;;;;;;;;;;;;5049712;28;45150;-77
2022/06/25 13:56:22;;;;;;;;;;;;;;;;;;5033995;28;47569;-76
2022/06/25 13:58:49;;;;;;;;;;;;;;;;;;5031391;28;47015;-76
2022/06/25 14:01:15;;;;;;;;;;;;;;;;;;5042386;28;43255;-76
2022/06/25 14:03:41;;;;;;;;;;;;;;;;;;5064932;28;45806;-77
2022/06/25 14:06:08;;;;;;;;;;;;;;;;;;5048481;28;46882;-75
2022/06/25 14:08:35;;;;;;;;;;;;;;;;;;5066798;28;45024;-77
2022/06/25 14:11:01;;;;;;;;;;;;;;;;;;5059828;28;44631;-75
2022/06/25 14:13:28;;;;;;;;;;;;;;;;;;5034316;28;45268;-75
2022/06/25 14:15:54;;;;;;;;;;;;;;;;;;5040155;28;44210;-77
2022/06/25 14:18:20;;;;;;;;;;;;;;;;;;5063095;28;45511;-78
2022/06/25 14:20:46;;;;;;;;;;;;;;;;;;5036397;28;42422;-77
2022/06/25 14:23:13;;;;;;;;;;;;;;;;;;5046638;28;45748;-76
2022/06/25 14:25:39;;;;;;;;;;;;;;;;;;5061680;28;47017;-77
2022/06/25 14:28:06;;;;;;;;;;;;;;;;;;5061851;28;45086;-77
2022/06/25 14:30:32;;;;;;;;;;;;;;;;;;5034702;28;46395;-76
2022/06/25 14:32:58;;;;;;;;;;;;;;;;;;5045404;28;45768;-76
2022/06/25 14:35:25;;;;;;;;;;;;;;;;;;5057396;28;43158;-75
2022/06/25 14:43:25;;;;;;;;;;;;;;;;;;5059061;28;46614;-76
2022/06/25 14:45:51;;;;;;;;;;;;;;;;;;5040539;28;48323;-75
2022/06/25 14:48:18;;;;;;;;;;;;;;;;;;5053438;28;44483;-76
2022/06/25 14:50:45;;;;;;;;;;;;;;;;;;5056966;28;45415;-76
2022/06/25 14:53:15;;;;;;;;;;;;;;;;;;5054750;28;45128;-77
2022/06/25 14:55:41;;;;;;;;;;;;;;;;;;5062890;28;44674;-75
2022/06/25 14:58:08;;;;;;;;;;;;;;;;;;5046581;28;44978;-76
2022/06/25 15:00:34;;;;;;;;;;;;;;;;;;5042149;28;46030;-75
2022/06/25 15:03:00;;;;;;;;;;;;;;;;;;5041485;28;45652;-77
2022/06/25 15:05:28;;;;;;;;;;;;;;;;;;5059928;28;48511;-76
2022/06/25 15:07:54;;;;;;;;;;;;;;;;;;5062632;28;43913;-75
2022/06/25 15:10:20;;;;;;;;;;;;;;;;;;5035045;28;45692;-75
2022/06/25 15:12:47;;;;;;;;;;;;;;;;;;5059018;28;48416;-76
2022/06/25 15:15:13;;;;;;;;;;;;;;;;;;5062431;28;43812;-76
2022/06/25 15:17:39;;;;;;;;;;;;;;;;;;5044229;28;46469;-77
2022/06/25 15:20:06;;;;;;;;;;;;;;;;;;5058292;28;45367;-77
2022/06/25 15:22:32;;;;;;;;;;;;;;;;;;5039024;28;50056;-77
2022/06/25 15:24:58;;;;;;;;;;;;;;;;;;5060520;28;46281;-77
2022/06/25 15:27:24;;;;;;;;;;;;;;;;;;5051853;28;42794;-76
2022/06/25 15:29:51;;;;;;;;;;;;;;;;;;5036300;28;45891;-77
2022/06/25 15:32:17;;;;;;;;;;;;;;;;;;5062988;28;46011;-76
2022/06/25 15:34:44;;;;;;;;;;;;;;;;;;5053604;28;42967;-75
2022/06/25 15:37:10;;;;;;;;;;;;;;;;;;5058893;28;45147;-74
2022/06/25 15:39:36;;;;;;;;;;;;;;;;;;5036189;28;46874;-75
2022/06/25 15:42:03;;;;;;;;;;;;;;;;;;5059885;28;45821;-75
2022/06/25 15:44:30;;;;;;;;;;;;;;;;;;5035956;28;48260;-79
2022/06/25 15:46:56;;;;;;;;;;;;;;;;;;5060284;28;44755;-75
2022/06/25 15:49:23;;;;;;;;;;;;;;;;;;5063040;28;46643;-75
2022/06/25 15:51:49;;;;;;;;;;;;;;;;;;5055447;28;48494;-77
2022/06/25 15:54:15;;;;;;;;;;;;;;;;;;5042182;28;45103;-77
2022/06/25 15:56:42;;;;;;;;;;;;;;;;;;5025189;28;43722;-77
2022/06/25 16:01:53;;;;;;;;;;;;;;;;;;5051826;28;44565;-76
2022/06/25 16:04:19;;;;;;;;;;;;;;;;;;5061149;28;44567;-76
2022/06/25 16:06:45;;;;;;;;;;;;;;;;;;5063756;28;43851;-77
2022/06/25 16:09:12;;;;;;;;;;;;;;;;;;5045908;28;47508;-77
2022/06/25 16:11:38;;;;;;;;;;;;;;;;;;5049195;28;47308;-77
2022/06/25 16:14:08;;;;;;;;;;;;;;;;;;5063830;28;43482;-77
2022/06/25 16:16:34;;;;;;;;;;;;;;;;;;5043530;28;45579;-76
2022/06/25 16:19:00;;;;;;;;;;;;;;;;;;5033267;28;46923;-77
2022/06/25 16:21:27;;;;;;;;;;;;;;;;;;5045971;28;44504;-76
2022/06/25 16:23:53;;;;;;;;;;;;;;;;;;5043272;28;45565;-77
2022/06/25 16:26:19;;;;;;;;;;;;;;;;;;5043689;28;45720;-77
2022/06/25 16:28:46;;;;;;;;;;;;;;;;;;5060634;28;46377;-77
2022/06/25 16:31:12;;;;;;;;;;;;;;;;;;5045022;28;48347;-77
2022/06/25 16:33:38;;;;;;;;;;;;;;;;;;5046523;28;42958;-78
2022/06/25 16:36:05;;;;;;;;;;;;;;;;;;5035563;28;45160;-77
2022/06/25 16:38:31;;;;;;;;;;;;;;;;;;5052604;28;49000;-75
2022/06/25 16:40:58;;;;;;;;;;;;;;;;;;5044209;28;44710;-77
2022/06/25 16:44:00;;;;;;;;;;;;;;;;;;5037996;28;46251;-77
2022/06/25 16:46:12;;;;;;;;;;;;;;;;;;5044604;28;48056;-77
2022/06/25 16:48:38;;;;;;;;;;;;;;;;;;5063836;28;45272;-76
2022/06/25 16:51:06;;;;;;;;;;;;;;;;;;5039539;28;45736;-77
2022/06/25 16:53:33;;;;;;;;;;;;;;;;;;5042336;28;42537;-76
2022/06/25 16:55:59;;;;;;;;;;;;;;;;;;5044527;28;45006;-77
2022/06/25 16:58:29;;;;;;;;;;;;;;;;;;5045453;28;45510;-77
2022/06/25 17:00:56;;;;;;;;;;;;;;;;;;5054565;28;44612;-77
2022/06/25 17:03:23;;;;;;;;;;;;;;;;;;5060665;28;46823;-77